Time;durP1;ratioP1;P1;durP2;ratioP2;P2;SDS_P1;SDS_P2;PMS_P1;PMS_P2;Temp;Humidity;BMP_temperature;BMP_pressure;BME280_temperature;BME280_humidity;BME280_pressure;Samples;Min_cycle;Max_cycle;Signal;HPM_P1;HPM_P2
2023/07/25 00:01:00;;;;;;;;;3.00;2.00;;;;;21.12;68.35;100129.63;4999571;28;45261;-69
2023/07/25 00:03:26;;;;;;;;;2.25;2.25;;;;;20.98;68.38;100124.53;5001350;28;45336;-69
2023/07/25 00:05:51;;;;;;;;;1.00;1.00;;;;;20.73;68.77;100103.09;5019217;28;45313;-69
2023/07/25 00:08:16;;;;;;;;;2.00;2.00;;;;;20.65;69.41;100102.88;5001438;28;46877;-69
2023/07/25 00:10:42;;;;;;;;;1.50;1.50;;;;;20.58;70.63;100101.66;5019004;28;45397;-69
2023/07/25 00:13:07;;;;;;;;;2.00;1.00;;;;;20.61;70.80;100111.34;5019266;28;45346;-69
2023/07/25 00:15:32;;;;;;;;;3.00;2.50;;;;;20.70;71.56;100130.47;5018883;28;45667;-69
2023/07/25 00:17:58;;;;;;;;;2.00;2.00;;;;;20.75;70.90;100149.06;5018898;28;47105;-69
2023/07/25 00:20:23;;;;;;;;;1.00;1.00;;;;;20.61;70.67;100135.75;5018815;28;45332;-69
2023/07/25 00:22:48;;;;;;;;;2.00;2.00;;;;;20.43;70.94;100111.94;5001486;28;46153;-69
2023/07/25 00:25:14;;;;;;;;;2.00;2.00;;;;;20.60;71.33;100150.31;5018852;28;45643;-69
2023/07/25 00:27:39;;;;;;;;;2.00;2.00;;;;;20.58;72.20;100153.16;5001323;28;46692;-69
2023/07/25 00:30:05;;;;;;;;;2.50;2.50;;;;;20.45;72.51;100119.94;5000737;28;45488;-68
2023/07/25 00:32:34;;;;;;;;;2.00;2.00;;;;;20.61;72.67;100158.31;5008600;28;45329;-68
2023/07/25 00:34:59;;;;;;;;;4.25;3.50;;;;;20.63;73.25;100159.09;4998923;28;45481;-68
2023/07/25 00:37:30;;;;;;;;;1.75;1.75;;;;;20.47;73.22;100128.81;4998931;28;45590;-68
2023/07/25 00:39:56;;;;;;;;;2.50;2.00;;;;;20.64;73.80;100158.09;4981138;28;45491;-68
2023/07/25 00:42:22;;;;;;;;;2.50;2.00;;;;;20.62;73.96;100138.34;4999154;28;45401;-68
2023/07/25 00:44:47;;;;;;;;;3.00;2.75;;;;;20.57;73.60;100126.19;4998596;28;45511;-68
2023/07/25 00:47:13;;;;;;;;;3.25;2.00;;;;;20.43;73.74;100095.66;4998866;28;45600;-68
2023/07/25 00:49:41;;;;;;;;;2.00;2.00;;;;;20.63;74.14;100131.97;4999874;28;45428;-69
2023/07/25 00:52:08;;;;;;;;;2.75;2.25;;;;;20.38;73.78;100084.34;5002627;28;45850;-70
2023/07/25 00:54:33;;;;;;;;;3.00;3.00;;;;;20.45;74.39;100100.97;5002395;28;45362;-70
2023/07/25 00:56:58;;;;;;;;;2.75;2.00;;;;;20.65;74.81;100132.72;5002346;28;46333;-70
2023/07/25 00:59:24;;;;;;;;;3.00;2.00;;;;;20.39;75.01;100087.91;5001921;28;45582;-70
2023/07/25 01:01:49;;;;;;;;;1.75;1.00;;;;;20.51;75.08;100106.72;5007620;28;45408;-70
2023/07/25 01:04:14;;;;;;;;;2.50;2.50;;;;;20.67;75.47;100133.44;5004144;28;45460;-70
2023/07/25 01:06:41;;;;;;;;;4.50;3.00;;;;;20.67;75.43;100127.16;5000797;28;48422;-70
2023/07/25 01:09:06;;;;;;;;;3.75;2.00;;;;;20.66;75.56;100128.97;5002092;28;45464;-70
2023/07/25 01:11:32;;;;;;;;;2.25;2.25;;;;;20.68;75.69;100129.75;5002201;28;45402;-70
2023/07/25 01:13:57;;;;;;;;;2.00;2.00;;;;;20.48;75.40;100093.44;5001842;28;45295;-70
2023/07/25 01:16:25;;;;;;;;;3.00;3.00;;;;;20.63;75.67;100120.25;5001957;28;45565;-70
2023/07/25 01:18:52;;;;;;;;;2.25;1.75;;;;;20.55;75.60;100105.47;4983973;28;46284;-69
2023/07/25 01:21:18;;;;;;;;;4.00;4.00;;;;;20.65;75.95;100118.28;5001962;28;45381;-69
2023/07/25 01:23:45;;;;;;;;;2.75;2.50;;;;;20.65;75.81;100119.16;5001881;28;45735;-70
2023/07/25 01:26:10;;;;;;;;;2.00;2.00;;;;;20.48;75.77;100087.13;5001807;28;45969;-70
2023/07/25 01:28:37;;;;;;;;;3.75;2.25;;;;;20.61;75.62;100105.94;5006759;28;45685;-70
2023/07/25 01:31:03;;;;;;;;;2.00;2.00;;;;;20.59;76.25;100107.94;5009923;28;45657;-70
2023/07/25 01:33:28;;;;;;;;;1.25;1.25;;;;;20.64;75.81;100112.00;5001631;28;45425;-70
2023/07/25 01:35:54;;;;;;;;;1.25;1.25;;;;;20.49;75.90;100084.28;4983791;28;48075;-69
2023/07/25 01:38:19;;;;;;;;;1.00;1.00;;;;;20.64;75.72;100106.56;5001434;28;45278;-69
2023/07/25 01:40:44;;;;;;;;;1.25;1.25;;;;;20.68;75.68;100109.88;4984144;28;45326;-69
2023/07/25 01:43:10;;;;;;;;;2.50;2.50;;;;;20.49;76.02;100067.16;5001367;28;45550;-69
2023/07/25 01:45:36;;;;;;;;;2.00;2.00;;;;;20.51;75.86;100067.91;5001231;28;46848;-69
2023/07/25 01:48:01;;;;;;;;;2.00;2.00;;;;;20.65;76.00;100091.19;5001309;28;45437;-68
2023/07/25 01:50:27;;;;;;;;;2.00;2.00;;;;;20.44;76.09;100066.69;5001716;28;45350;-69
2023/07/25 01:52:53;;;;;;;;;1.50;1.00;;;;;20.56;76.36;100087.34;5001479;28;45281;-69
2023/07/25 01:55:18;;;;;;;;;3.00;2.00;;;;;20.47;75.81;100078.16;5000169;28;46939;-69
2023/07/25 01:57:43;;;;;;;;;1.75;1.75;;;;;20.59;75.87;100103.34;5001331;28;45796;-69
2023/07/25 02:00:09;;;;;;;;;1.00;1.00;;;;;20.54;75.65;100092.03;4982362;28;45444;-69
2023/07/25 02:02:35;;;;;;;;;1.00;1.00;;;;;20.44;76.21;100069.41;5008946;28;45456;-69
2023/07/25 02:05:00;;;;;;;;;1.00;1.00;;;;;20.60;76.45;100094.25;5001453;28;46272;-69
2023/07/25 02:07:25;;;;;;;;;1.00;1.00;;;;;20.43;75.88;100060.44;5001168;28;45585;-69
2023/07/25 02:09:51;;;;;;;;;1.25;1.25;;;;;20.36;76.10;100049.25;5001462;28;45330;-69
2023/07/25 02:12:16;;;;;;;;;1.00;1.00;;;;;20.55;76.28;100080.22;5001131;28;45369;-69
2023/07/25 02:14:41;;;;;;;;;0.00;0.00;;;;;20.44;77.04;100067.56;5000890;28;45546;-69
2023/07/25 02:17:07;;;;;;;;;1.25;1.25;;;;;20.43;76.96;100059.56;5001081;28;45493;-69
2023/07/25 02:19:32;;;;;;;;;2.50;2.00;;;;;20.49;77.05;100065.31;5001291;28;45473;-69
2023/07/25 02:21:57;;;;;;;;;2.50;2.50;;;;;20.52;76.87;100066.91;5000889;28;45568;-69
2023/07/25 02:24:23;;;;;;;;;3.50;3.50;;;;;20.38;76.84;100041.00;5001036;28;46420;-69
2023/07/25 02:26:48;;;;;;;;;4.25;3.00;;;;;20.39;77.46;100048.13;5000955;28;45361;-69
2023/07/25 02:29:13;;;;;;;;;2.25;2.25;;;;;20.54;77.12;100059.50;5011270;28;45523;-69
2023/07/25 02:31:38;;;;;;;;;4.00;4.00;;;;;20.53;77.90;100064.06;5003902;28;45467;-68
2023/07/25 02:34:04;;;;;;;;;4.00;2.75;;;;;20.55;77.92;100070.22;4999359;28;47896;-69
2023/07/25 02:36:29;;;;;;;;;4.00;4.00;;;;;20.35;77.89;100028.53;4982853;28;45424;-69
2023/07/25 02:38:55;;;;;;;;;3.25;3.00;;;;;20.30;78.22;100017.22;4983140;28;45282;-69
2023/07/25 02:41:20;;;;;;;;;2.00;2.00;;;;;20.47;77.76;100048.31;4998995;28;45597;-69
2023/07/25 02:43:45;;;;;;;;;7.00;4.00;;;;;20.42;77.84;100037.00;5000287;28;46282;-69
2023/07/25 02:46:10;;;;;;;;;6.50;5.00;;;;;20.41;77.66;100027.16;5000501;28;45230;-69
2023/07/25 02:48:36;;;;;;;;;5.00;4.75;;;;;20.53;77.88;100046.94;5000800;28;45302;-69
2023/07/25 02:51:01;;;;;;;;;5.00;5.00;;;;;20.59;78.00;100056.41;5000530;28;45298;-69
2023/07/25 02:53:27;;;;;;;;;8.00;7.25;;;;;20.31;78.14;100016.25;4982925;28;46681;-69
2023/07/25 02:55:53;;;;;;;;;6.00;5.50;;;;;20.35;77.80;100020.41;5000524;28;45441;-69
2023/07/25 02:58:19;;;;;;;;;4.25;4.25;;;;;20.39;78.06;100029.13;4999235;28;45506;-69
2023/07/25 03:00:44;;;;;;;;;4.25;4.25;;;;;20.57;77.30;100053.81;5000315;28;45421;-69
2023/07/25 03:03:10;;;;;;;;;5.25;5.25;;;;;20.59;77.04;100064.53;4999907;28;47063;-69
2023/07/25 03:05:35;;;;;;;;;5.00;5.00;;;;;20.33;77.39;100011.56;5020153;28;45521;-69
2023/07/25 03:08:00;;;;;;;;;2.75;2.75;;;;;20.33;77.16;100016.97;5002644;28;45593;-69
2023/07/25 03:10:26;;;;;;;;;3.75;3.75;;;;;20.39;77.03;100025.56;5002110;28;45524;-69
2023/07/25 03:12:52;;;;;;;;;4.75;3.25;;;;;20.58;77.45;100065.53;5019630;28;45380;-69
2023/07/25 03:15:18;;;;;;;;;5.25;5.00;;;;;20.42;77.49;100044.28;5019821;28;45633;-69
2023/07/25 03:17:43;;;;;;;;;4.00;4.00;;;;;20.35;77.24;100042.09;5020241;28;45441;-69
2023/07/25 03:20:09;;;;;;;;;5.00;5.00;;;;;20.38;77.20;100043.69;5019966;28;45539;-69
2023/07/25 03:22:34;;;;;;;;;5.00;5.00;;;;;20.47;77.19;100070.00;5001961;28;48936;-69
2023/07/25 03:25:00;;;;;;;;;4.25;4.25;;;;;20.32;77.47;100050.47;5019948;28;45420;-69
2023/07/25 03:27:25;;;;;;;;;4.00;4.00;;;;;20.33;77.25;100054.91;5020074;28;45378;-69
2023/07/25 03:29:50;;;;;;;;;4.50;4.50;;;;;20.08;76.90;100018.19;4999552;28;45378;-69
2023/07/25 03:32:16;;;;;;;;;5.50;4.50;;;;;20.13;76.52;100048.47;4993084;28;46153;-69
2023/07/25 03:34:41;;;;;;;;;4.00;4.00;;;;;20.29;76.93;100075.13;4982209;28;46287;-69
2023/07/25 03:37:07;;;;;;;;;6.75;5.00;;;;;20.07;76.51;100043.56;4999822;28;45358;-69
2023/07/25 03:39:32;;;;;;;;;3.50;3.50;;;;;20.26;76.10;100080.78;4998586;28;45421;-69
2023/07/25 03:41:58;;;;;;;;;4.75;3.00;;;;;20.03;76.30;100046.63;4982172;28;46543;-68
2023/07/25 03:44:23;;;;;;;;;4.00;4.00;;;;;20.17;76.78;100076.16;4981886;28;45473;-68
2023/07/25 03:46:48;;;;;;;;;3.75;3.25;;;;;20.14;75.98;100087.25;4998486;28;45501;-69
2023/07/25 03:49:14;;;;;;;;;2.50;2.50;;;;;19.87;76.18;100055.19;4999686;28;45504;-68
2023/07/25 03:51:39;;;;;;;;;3.00;3.00;;;;;19.80;75.95;100050.25;4999617;28;46111;-68
2023/07/25 03:54:06;;;;;;;;;4.00;4.00;;;;;19.82;76.69;100058.25;4981904;28;45354;-68
2023/07/25 03:56:32;;;;;;;;;4.25;4.25;;;;;19.95;76.86;100088.78;4998499;28;45511;-68
2023/07/25 03:59:00;;;;;;;;;5.00;4.00;;;;;19.92;77.16;100089.03;4999311;28;45535;-68
2023/07/25 04:01:26;;;;;;;;;4.25;4.25;;;;;19.79;76.88;100070.19;5001605;28;47511;-68
2023/07/25 04:03:52;;;;;;;;;2.75;2.50;;;;;19.86;77.11;100089.50;5003966;28;45605;-68
2023/07/25 04:06:18;;;;;;;;;3.75;3.75;;;;;19.95;77.75;100106.88;4999784;28;45321;-68
2023/07/25 04:08:44;;;;;;;;;3.75;3.50;;;;;19.88;77.06;100094.81;4999464;28;45756;-69
2023/07/25 04:11:09;;;;;;;;;4.50;3.75;;;;;19.96;77.24;100104.06;4998051;28;47038;-69
2023/07/25 04:13:35;;;;;;;;;2.50;2.50;;;;;19.99;77.40;100111.03;4997701;28;45405;-69
2023/07/25 04:16:00;;;;;;;;;4.25;3.50;;;;;19.83;77.13;100092.50;4999675;28;45357;-69
2023/07/25 04:18:25;;;;;;;;;3.50;3.50;;;;;20.00;77.74;100129.03;4999039;28;45720;-69
2023/07/25 04:20:51;;;;;;;;;1.00;1.00;;;;;19.76;77.85;100088.53;4998000;28;46350;-70
2023/07/25 04:23:16;;;;;;;;;3.00;3.00;;;;;19.82;77.79;100098.88;4996452;28;45609;-70
2023/07/25 04:25:42;;;;;;;;;2.00;2.00;;;;;19.98;78.33;100128.31;4999579;28;45488;-69
2023/07/25 04:28:08;;;;;;;;;3.00;3.00;;;;;19.84;77.93;100105.03;4999066;28;45951;-70
2023/07/25 04:30:33;;;;;;;;;2.00;2.00;;;;;19.87;77.52;100122.91;4997115;28;46823;-70
2023/07/25 04:32:58;;;;;;;;;2.25;2.25;;;;;19.92;77.70;100123.38;4999041;28;45456;-69
2023/07/25 04:35:24;;;;;;;;;4.50;4.50;;;;;19.76;78.16;100089.44;4999192;28;45476;-70
2023/07/25 04:37:49;;;;;;;;;3.00;3.00;;;;;19.68;77.89;100083.75;4998904;28;45328;-70
2023/07/25 04:40:15;;;;;;;;;4.50;4.50;;;;;19.75;78.46;100093.09;4981353;28;47069;-70
2023/07/25 04:42:40;;;;;;;;;3.75;3.75;;;;;19.89;78.35;100127.19;4997646;28;45301;-70
2023/07/25 04:45:06;;;;;;;;;3.75;3.50;;;;;19.67;78.62;100091.97;4998920;28;45357;-70
2023/07/25 04:47:31;;;;;;;;;3.00;3.00;;;;;19.69;78.35;100087.28;4998735;28;45632;-70
2023/07/25 04:49:56;;;;;;;;;2.00;2.00;;;;;19.60;78.12;100084.34;4998947;28;46183;-70
2023/07/25 04:52:22;;;;;;;;;3.00;3.00;;;;;19.67;77.99;100097.41;4981109;28;45294;-69
2023/07/25 04:54:47;;;;;;;;;3.00;3.00;;;;;19.85;78.27;100128.44;4999123;28;45358;-70
2023/07/25 04:57:13;;;;;;;;;3.50;2.75;;;;;19.71;77.74;100115.09;4998835;28;45455;-69
2023/07/25 04:59:38;;;;;;;;;3.50;3.50;;;;;19.60;78.40;100102.44;4998667;28;45312;-70
2023/07/25 05:02:03;;;;;;;;;6.00;3.00;;;;;19.54;78.78;100106.47;5006626;28;45284;-70
2023/07/25 05:04:29;;;;;;;;;3.25;3.00;;;;;19.69;78.58;100141.44;4999021;28;45373;-69
2023/07/25 05:06:54;;;;;;;;;3.50;3.00;;;;;19.61;78.71;100126.69;4998558;28;45388;-69
2023/07/25 05:09:20;;;;;;;;;4.00;4.00;;;;;19.58;78.66;100126.94;4998862;28;45448;-69
2023/07/25 05:11:47;;;;;;;;;4.50;4.50;;;;;19.71;78.65;100139.47;4998429;28;45385;-69
2023/07/25 05:14:13;;;;;;;;;5.25;4.75;;;;;19.69;79.21;100147.72;4998718;28;45512;-69
2023/07/25 05:16:38;;;;;;;;;3.75;3.75;;;;;19.68;78.87;100151.44;4998664;28;45387;-69
2023/07/25 05:19:03;;;;;;;;;6.00;6.00;;;;;19.66;79.42;100150.66;4998350;28;45416;-69
2023/07/25 05:21:29;;;;;;;;;4.00;3.50;;;;;19.71;79.30;100155.72;4998564;28;45412;-69
2023/07/25 05:23:55;;;;;;;;;5.25;5.25;;;;;19.50;79.37;100128.53;4998648;28;45298;-69
2023/07/25 05:26:20;;;;;;;;;3.75;3.00;;;;;19.48;79.63;100128.66;4998638;28;45480;-69
2023/07/25 05:28:46;;;;;;;;;6.25;5.25;;;;;19.71;79.84;100161.13;5004809;28;45274;-69
2023/07/25 05:31:11;;;;;;;;;4.00;4.00;;;;;19.48;79.92;100134.06;5005194;28;45331;-70
2023/07/25 05:33:36;;;;;;;;;6.00;4.50;;;;;19.46;79.34;100122.47;4998417;28;45475;-70
2023/07/25 05:36:03;;;;;;;;;4.75;4.75;;;;;19.48;79.53;100131.34;5001296;28;45749;-69
2023/07/25 05:38:28;;;;;;;;;7.00;6.25;;;;;19.60;79.84;100145.75;5001481;28;45544;-69
2023/07/25 05:40:55;;;;;;;;;4.50;4.50;;;;;19.54;79.81;100146.25;5000461;28;45455;-69
2023/07/25 05:43:20;;;;;;;;;4.00;4.00;;;;;19.53;79.40;100148.09;4983620;28;45396;-70
2023/07/25 05:45:45;;;;;;;;;4.00;3.75;;;;;19.37;79.32;100123.22;5000550;28;45598;-69
2023/07/25 05:48:11;;;;;;;;;3.00;3.00;;;;;19.55;79.43;100146.13;4999409;28;46939;-69
2023/07/25 05:50:36;;;;;;;;;3.25;3.25;;;;;19.59;79.45;100147.59;5001534;28;45402;-69
2023/07/25 05:53:01;;;;;;;;;5.50;5.50;;;;;19.54;79.37;100141.69;5000372;28;45488;-69
2023/07/25 05:55:27;;;;;;;;;5.00;4.00;;;;;19.49;79.51;100143.03;5001404;28;45563;-69
2023/07/25 05:57:52;;;;;;;;;5.75;4.25;;;;;19.67;79.34;100173.22;4983492;28;48003;-69
2023/07/25 06:00:18;;;;;;;;;5.75;3.00;;;;;19.63;79.73;100170.75;5001019;28;45441;-70
2023/07/25 06:02:43;;;;;;;;;6.50;5.50;;;;;19.52;79.64;100140.09;4992333;28;45393;-70
2023/07/25 06:05:08;;;;;;;;;5.75;3.50;;;;;19.73;79.70;100195.25;5000272;28;45472;-69
2023/07/25 06:07:34;;;;;;;;;5.50;5.00;;;;;19.60;79.77;100176.38;4999804;28;46778;-70
2023/07/25 06:09:59;;;;;;;;;5.25;5.00;;;;;19.67;79.93;100187.59;5001380;28;45296;-69
2023/07/25 06:12:24;;;;;;;;;5.25;4.00;;;;;19.52;79.43;100164.44;4999898;28;45493;-70
2023/07/25 06:14:50;;;;;;;;;5.50;4.75;;;;;19.48;79.75;100163.84;4983301;28;45538;-69
2023/07/25 06:17:15;;;;;;;;;6.50;5.25;;;;;19.69;79.51;100203.72;5000946;28;45335;-69
2023/07/25 06:19:41;;;;;;;;;6.25;5.50;;;;;19.63;79.62;100192.41;4999740;28;45329;-70
2023/07/25 06:22:06;;;;;;;;;5.25;4.00;;;;;19.62;79.89;100196.06;4983272;28;45590;-69
2023/07/25 06:24:32;;;;;;;;;6.00;5.50;;;;;19.60;80.00;100191.78;5001022;28;45636;-69
2023/07/25 06:26:57;;;;;;;;;6.75;6.75;;;;;19.54;79.36;100182.28;4983120;28;47633;-70
2023/07/25 06:29:23;;;;;;;;;5.00;5.00;;;;;19.56;79.61;100185.75;4994623;28;46042;-70
2023/07/25 06:31:48;;;;;;;;;6.00;6.00;;;;;19.65;79.94;100213.94;5002325;28;45296;-69
2023/07/25 06:34:13;;;;;;;;;6.25;6.25;;;;;19.49;80.16;100176.38;5000994;28;45452;-69
2023/07/25 06:36:39;;;;;;;;;8.50;6.75;;;;;19.53;80.32;100182.41;5000532;28;45703;-70
2023/07/25 06:39:04;;;;;;;;;7.25;7.00;;;;;19.56;80.25;100195.69;4982968;28;45440;-69
2023/07/25 06:41:30;;;;;;;;;6.75;6.25;;;;;19.61;79.96;100205.19;5000765;28;45434;-69
2023/07/25 06:43:55;;;;;;;;;9.75;8.00;;;;;19.64;80.33;100214.91;5000412;28;45361;-69
2023/07/25 06:46:21;;;;;;;;;6.00;6.00;;;;;19.40;80.27;100177.13;4982023;28;46461;-69
2023/07/25 06:48:47;;;;;;;;;8.00;8.00;;;;;19.46;80.43;100198.25;4999355;28;45556;-69
2023/07/25 06:51:13;;;;;;;;;12.00;12.00;;;;;19.46;79.61;100210.94;5000621;28;45318;-69
2023/07/25 06:53:38;;;;;;;;;10.25;9.25;;;;;19.40;79.48;100199.63;4999107;28;45429;-69
2023/07/25 06:56:03;;;;;;;;;11.75;11.75;;;;;19.36;78.27;100213.50;4982630;28;47061;-69
2023/07/25 06:58:29;;;;;;;;;14.50;14.50;;;;;19.32;78.54;100222.84;5000334;28;45419;-69
2023/07/25 07:00:54;;;;;;;;;11.25;11.25;;;;;19.41;78.11;100249.19;5000407;28;45298;-69
2023/07/25 07:03:19;;;;;;;;;15.50;14.25;;;;;19.39;78.59;100254.72;5008547;28;45566;-69
2023/07/25 07:05:53;;;;;;;;;14.25;13.25;;;;;19.36;78.15;100271.22;5000310;28;46445;-69
2023/07/25 07:08:18;;;;;;;;;25.00;15.75;;;;;19.05;77.61;100237.50;5000242;28;45592;-69
2023/07/25 07:10:44;;;;;;;;;17.25;15.50;;;;;19.00;77.98;100251.38;4982634;28;45451;-69
2023/07/25 07:13:09;;;;;;;;;14.50;13.75;;;;;18.98;78.24;100256.03;5000211;28;45288;-69
2023/07/25 07:15:34;;;;;;;;;15.75;14.00;;;;;19.10;77.82;100281.31;4999927;28;46624;-69
2023/07/25 07:18:00;;;;;;;;;15.75;14.50;;;;;19.11;77.71;100285.75;4998941;28;45253;-69
2023/07/25 07:20:25;;;;;;;;;15.50;14.50;;;;;18.83;77.96;100255.34;5000132;28;45279;-69
2023/07/25 07:22:50;;;;;;;;;18.50;17.00;;;;;18.98;76.53;100293.91;5000091;28;45464;-68
2023/07/25 07:25:16;;;;;;;;;13.00;13.00;;;;;18.70;76.52;100270.72;4998621;28;48220;-69
2023/07/25 07:27:41;;;;;;;;;14.50;13.50;;;;;18.66;76.90;100277.31;5000106;28;45238;-69
2023/07/25 07:30:07;;;;;;;;;15.75;15.75;;;;;18.62;77.86;100275.84;5012769;28;45553;-69
2023/07/25 07:32:32;;;;;;;;;11.75;10.75;;;;;18.66;76.99;100304.34;4999926;28;45421;-69
2023/07/25 07:34:58;;;;;;;;;11.75;10.50;;;;;18.46;78.02;100297.69;4982037;28;46492;-69
2023/07/25 07:37:23;;;;;;;;;16.00;11.75;;;;;18.39;77.33;100297.28;4998421;28;45511;-69
2023/07/25 07:39:49;;;;;;;;;11.25;10.50;;;;;18.54;77.70;100332.28;4999792;28;45625;-70
2023/07/25 07:42:14;;;;;;;;;9.75;9.75;;;;;18.31;76.83;100305.09;4999891;28;45532;-69
2023/07/25 07:44:39;;;;;;;;;9.25;9.25;;;;;18.40;77.55;100330.59;4999102;28;46252;-69
2023/07/25 07:47:06;;;;;;;;;9.75;8.50;;;;;18.18;76.92;100306.94;4998373;28;45425;-69
2023/07/25 07:49:33;;;;;;;;;10.00;9.50;;;;;18.25;76.60;100340.66;4982083;28;45425;-69
2023/07/25 07:51:59;;;;;;;;;9.25;9.25;;;;;18.25;78.12;100360.41;4999731;28;45547;-69
2023/07/25 07:54:24;;;;;;;;;7.00;7.00;;;;;18.13;76.86;100345.09;4998209;28;47590;-69
2023/07/25 07:56:50;;;;;;;;;7.25;6.25;;;;;17.90;76.56;100320.53;4981912;28;45377;-69
2023/07/25 07:59:15;;;;;;;;;5.50;5.50;;;;;17.94;77.28;100343.69;4980449;28;45370;-69
2023/07/25 08:01:40;;;;;;;;;7.00;4.75;;;;;17.89;77.41;100337.72;5004989;28;45258;-69
2023/07/25 08:04:06;;;;;;;;;5.25;5.25;;;;;17.89;77.39;100334.16;5001883;28;45493;-69
2023/07/25 08:06:31;;;;;;;;;5.25;4.50;;;;;17.95;77.05;100345.38;4999395;28;50152;-69
2023/07/25 08:08:56;;;;;;;;;4.25;2.25;;;;;17.99;76.16;100370.34;4981697;28;45577;-69
2023/07/25 08:11:22;;;;;;;;;3.50;3.00;;;;;17.82;75.76;100347.19;4999495;28;45342;-69
2023/07/25 08:13:47;;;;;;;;;3.50;2.50;;;;;17.78;75.90;100356.47;4999048;28;46745;-69
2023/07/25 08:16:12;;;;;;;;;3.75;2.50;;;;;17.70;76.17;100356.13;4999465;28;45387;-69
2023/07/25 08:18:38;;;;;;;;;3.00;2.00;;;;;17.64;75.12;100360.13;4999208;28;45548;-69
2023/07/25 08:21:03;;;;;;;;;2.00;2.00;;;;;17.57;76.18;100354.28;4999360;28;45354;-69
2023/07/25 08:23:29;;;;;;;;;3.00;3.00;;;;;17.62;76.62;100370.13;4998965;28;45848;-69
2023/07/25 08:25:55;;;;;;;;;4.00;2.00;;;;;17.46;76.89;100348.75;4981430;28;45396;-69
2023/07/25 08:28:21;;;;;;;;;1.75;1.75;;;;;17.84;76.10;100414.56;5002214;28;45454;-69
2023/07/25 08:30:47;;;;;;;;;2.75;1.00;;;;;17.58;75.17;100388.38;5009162;28;45370;-69
2023/07/25 08:33:15;;;;;;;;;1.00;1.00;;;;;17.51;74.76;100402.41;4998885;28;45444;-69
2023/07/25 08:35:40;;;;;;;;;2.00;2.00;;;;;17.45;75.85;100389.31;4999181;28;45504;-69
2023/07/25 08:38:05;;;;;;;;;1.75;1.75;;;;;17.59;74.85;100421.63;4998973;28;45333;-69
2023/07/25 08:40:31;;;;;;;;;1.25;1.25;;;;;17.44;74.45;100395.66;4999103;28;45314;-69
2023/07/25 08:43:03;;;;;;;;;0.00;0.00;;;;;17.48;75.25;100414.25;4997613;28;47225;-69
2023/07/25 08:45:30;;;;;;;;;2.00;2.00;;;;;17.40;74.21;100409.34;4981039;28;45414;-69
2023/07/25 08:48:02;;;;;;;;;2.00;1.25;;;;;17.29;75.20;100397.53;4999009;28;45361;-69
2023/07/25 08:50:29;;;;;;;;;3.00;3.00;;;;;17.40;75.92;100412.03;4999080;28;45549;-69
2023/07/25 08:52:59;;;;;;;;;2.00;2.00;;;;;17.55;75.17;100439.84;4998808;28;46706;-69
2023/07/25 08:55:25;;;;;;;;;5.00;2.00;;;;;17.48;75.93;100416.94;4981103;28;45338;-69
2023/07/25 08:57:52;;;;;;;;;1.25;1.25;;;;;17.69;74.97;100460.53;4999036;28;45380;-69
2023/07/25 09:00:17;;;;;;;;;2.00;2.00;;;;;17.47;74.47;100426.00;4998629;28;45387;-69
2023/07/25 09:02:43;;;;;;;;;0.75;0.75;;;;;17.61;74.05;100457.50;5006097;28;45463;-69
2023/07/25 09:05:09;;;;;;;;;1.00;1.00;;;;;17.41;72.79;100440.78;4998842;28;45376;-69
2023/07/25 09:07:35;;;;;;;;;1.50;1.50;;;;;17.53;73.39;100484.97;4998904;28;45386;-69
2023/07/25 09:10:00;;;;;;;;;1.25;1.25;;;;;17.61;74.23;100484.47;4982392;28;45487;-69
2023/07/25 09:12:26;;;;;;;;;2.00;2.00;;;;;17.60;73.43;100488.97;5001974;28;45444;-69
2023/07/25 09:14:52;;;;;;;;;2.75;2.75;;;;;17.46;73.11;100462.06;5001998;28;45417;-69
2023/07/25 09:17:17;;;;;;;;;5.50;4.00;;;;;17.41;74.47;100459.66;5002197;28;45308;-69
2023/07/25 09:19:43;;;;;;;;;3.00;3.00;;;;;17.62;72.69;100502.38;5002084;28;45456;-69
2023/07/25 09:22:38;;;;;;;;;3.00;3.00;;;;;17.60;72.53;100515.13;5001925;28;45467;-69
2023/07/25 09:25:08;;;;;;;;;4.75;3.00;;;;;17.47;72.99;100508.78;4989826;28;45326;-69
2023/07/25 09:27:34;;;;;;;;;4.75;3.00;;;;;17.36;73.92;100491.47;5000780;28;45474;-69
2023/07/25 09:29:59;;;;;;;;;4.50;3.50;;;;;17.38;72.67;100504.88;4997261;28;45305;-68
2023/07/25 09:32:27;;;;;;;;;4.00;4.00;;;;;17.44;73.40;100519.78;5001776;28;46572;-69
2023/07/25 09:34:58;;;;;;;;;4.00;3.75;;;;;17.44;73.22;100525.16;5001692;28;45345;-69
2023/07/25 09:37:24;;;;;;;;;3.00;3.00;;;;;17.52;74.02;100547.13;5000572;28;45514;-69
2023/07/25 09:39:50;;;;;;;;;4.50;4.00;;;;;17.51;74.45;100538.19;5001519;28;45770;-69
2023/07/25 09:42:15;;;;;;;;;5.00;3.00;;;;;17.54;74.35;100535.28;5001650;28;45334;-68
2023/07/25 09:44:48;;;;;;;;;4.50;3.75;;;;;17.52;74.05;100522.84;5000003;28;45367;-69
2023/07/25 09:47:19;;;;;;;;;3.25;3.25;;;;;17.59;74.17;100530.47;5001736;28;45430;-69
2023/07/25 09:49:48;;;;;;;;;5.00;3.50;;;;;17.80;74.28;100559.69;5001578;28;45434;-69
2023/07/25 09:52:14;;;;;;;;;5.00;3.50;;;;;17.82;74.63;100568.56;5001433;28;45477;-69
2023/07/25 09:54:39;;;;;;;;;4.00;4.00;;;;;17.63;74.64;100533.81;5001451;28;45451;-69
2023/07/25 09:57:07;;;;;;;;;7.50;5.50;;;;;17.89;73.66;100569.94;4983912;28;45350;-69
2023/07/25 09:59:37;;;;;;;;;7.75;6.50;;;;;17.93;74.07;100586.81;5001194;28;45306;-69
2023/07/25 10:02:06;;;;;;;;;7.00;5.00;;;;;17.75;74.41;100551.03;5009554;28;45344;-69
2023/07/25 10:04:34;;;;;;;;;5.75;4.00;;;;;17.91;74.72;100576.09;5008211;28;45334;-69
2023/07/25 10:06:59;;;;;;;;;8.75;8.75;;;;;17.87;75.05;100560.19;5021163;28;45561;-69
2023/07/25 10:09:25;;;;;;;;;6.00;6.00;;;;;17.88;74.81;100561.94;5020812;28;52862;-69
2023/07/25 10:11:53;;;;;;;;;6.50;6.50;;;;;17.90;74.73;100554.59;5020933;28;46160;-68
2023/07/25 10:14:19;;;;;;;;;7.00;7.00;;;;;18.02;75.21;100564.56;5003029;28;45648;-69
2023/07/25 10:16:45;;;;;;;;;7.50;7.00;;;;;18.13;75.13;100589.03;5020971;28;45447;-68
2023/07/25 10:19:10;;;;;;;;;6.25;6.25;;;;;18.19;74.47;100586.91;5020952;28;45362;-68
2023/07/25 10:21:52;;;;;;;;;9.50;7.00;;;;;18.08;75.03;100574.13;5019380;28;45337;-68
2023/07/25 10:24:20;;;;;;;;;7.00;7.00;;;;;18.24;75.11;100587.47;5003008;28;46144;-68
2023/07/25 10:27:12;;;;;;;;;5.75;5.25;;;;;18.28;74.87;100587.16;5020963;28;45403;-68
2023/07/25 10:29:46;;;;;;;;;5.75;5.75;;;;;18.08;73.31;100547.97;5016076;28;45556;-68
2023/07/25 10:32:19;;;;;;;;;6.25;6.25;;;;;18.33;73.77;100579.59;5000953;28;45602;-68
2023/07/25 10:34:49;;;;;;;;;9.50;7.50;;;;;18.38;73.80;100579.31;5000843;28;45473;-68
2023/07/25 10:37:36;;;;;;;;;11.00;9.00;;;;;18.28;73.58;100552.03;5000828;28;45451;-68
2023/07/25 10:40:11;;;;;;;;;8.50;7.00;;;;;18.49;72.46;100579.44;5000600;28;45316;-68
2023/07/25 10:42:45;;;;;;;;;8.50;8.00;;;;;18.58;72.68;100587.91;5000589;28;45486;-68
2023/07/25 10:45:29;;;;;;;;;8.50;6.00;;;;;18.62;70.62;100584.84;5000357;28;45302;-68
2023/07/25 10:47:56;;;;;;;;;5.25;5.25;;;;;18.52;70.31;100565.69;5000523;28;45438;-68
2023/07/25 10:50:26;;;;;;;;;10.25;9.25;;;;;18.72;71.20;100593.19;4999362;28;45519;-68
2023/07/25 10:52:51;;;;;;;;;10.00;8.00;;;;;18.58;71.80;100558.16;4982629;28;46427;-68
2023/07/25 10:55:17;;;;;;;;;9.75;8.50;;;;;18.84;71.02;100596.94;5000591;28;45376;-68
2023/07/25 10:58:08;;;;;;;;;9.75;9.50;;;;;18.89;70.31;100597.47;5000477;28;45375;-69
2023/07/25 11:00:35;;;;;;;;;7.50;6.00;;;;;18.82;69.40;100574.50;4983679;28;45546;-68
2023/07/25 11:03:31;;;;;;;;;10.75;9.00;;;;;18.94;69.57;100610.69;4994291;28;47422;-68
2023/07/25 11:06:05;;;;;;;;;5.75;5.75;;;;;18.97;69.47;100611.34;5018528;28;45466;-69
2023/07/25 11:08:32;;;;;;;;;6.75;6.75;;;;;18.76;67.81;100572.22;5002480;28;45531;-69
2023/07/25 11:11:04;;;;;;;;;8.00;7.25;;;;;18.91;68.53;100595.56;5020036;28;45449;-69
2023/07/25 11:13:35;;;;;;;;;7.00;6.00;;;;;18.82;68.49;100574.50;5019720;28;45504;-69
2023/07/25 11:16:05;;;;;;;;;8.00;7.00;;;;;18.91;68.04;100591.97;5002231;28;45603;-68
2023/07/25 11:18:37;;;;;;;;;6.50;6.50;;;;;18.98;68.24;100599.56;5019968;28;45500;-68
2023/07/25 11:21:07;;;;;;;;;6.00;6.00;;;;;18.84;68.71;100586.13;5019800;28;45379;-69